Time;durP1;ratioP1;P1;durP2;ratioP2;P2;SDS_P1;SDS_P2;PMS_P1;PMS_P2;Temp;Humidity;BMP_temperature;BMP_pressure;BME280_temperature;BME280_humidity;BME280_pressure;Samples;Min_cycle;Max_cycle;Signal;HPM_P1;HPM_P2
2023/07/29 00:00:40;;;;;;;13.48;6.97;;;;;;;20.34;48.29;99091.56;5013752;28;20084;-75
2023/07/29 00:03:05;;;;;;;16.80;7.10;;;;;;;20.38;48.12;99092.34;5013306;28;20033;-74
2023/07/29 00:05:31;;;;;;;9.63;6.47;;;;;;;20.59;47.48;99085.75;5014080;28;20045;-74
2023/07/29 00:07:56;;;;;;;15.15;7.22;;;;;;;20.60;47.31;99087.38;4996735;28;20019;-74
2023/07/29 00:10:22;;;;;;;10.60;7.10;;;;;;;20.53;47.37;99093.09;4994650;28;20026;-74
2023/07/29 00:12:47;;;;;;;11.60;6.88;;;;;;;20.13;48.36;99100.94;5011925;28;20060;-74
2023/07/29 00:15:13;;;;;;;8.32;6.85;;;;;;;19.80;49.49;99105.84;5013673;28;20034;-74
2023/07/29 00:17:39;;;;;;;8.27;6.35;;;;;;;19.38;50.56;99105.44;5014014;28;20033;-74
2023/07/29 00:20:06;;;;;;;7.57;6.07;;;;;;;18.95;51.83;99089.97;5012383;28;20501;-74
2023/07/29 00:22:31;;;;;;;10.40;6.55;;;;;;;18.79;52.56;99093.16;5013856;28;20022;-74
2023/07/29 00:24:59;;;;;;;9.43;6.07;;;;;;;18.89;52.15;99092.38;5014004;28;20044;-74
2023/07/29 00:27:26;;;;;;;8.60;7.70;;;;;;;18.94;52.29;99096.84;5012458;28;20026;-74
2023/07/29 00:29:52;;;;;;;10.75;6.85;;;;;;;18.99;52.16;99087.13;5008981;28;20030;-74
2023/07/29 00:32:17;;;;;;;10.15;7.18;;;;;;;18.74;52.85;99090.72;4994132;28;20553;-74
2023/07/29 00:34:43;;;;;;;8.02;7.07;;;;;;;18.63;53.27;99085.00;5004232;28;20045;-74
2023/07/29 00:37:10;;;;;;;10.02;6.95;;;;;;;18.75;53.52;99089.50;5012190;28;20026;-74
2023/07/29 00:39:36;;;;;;;9.07;6.40;;;;;;;18.81;53.22;99073.72;5012254;28;20042;-74
2023/07/29 00:42:02;;;;;;;8.75;6.68;;;;;;;18.94;53.04;99068.50;5013514;28;20034;-74
2023/07/29 00:44:28;;;;;;;11.38;6.68;;;;;;;19.19;52.52;99082.75;5013543;28;20032;-74
2023/07/29 00:46:54;;;;;;;10.98;6.88;;;;;;;19.26;52.35;99073.44;5007218;28;20092;-74
2023/07/29 00:49:21;;;;;;;8.73;6.57;;;;;;;19.04;53.01;99081.09;4992589;28;20023;-74
2023/07/29 00:51:46;;;;;;;10.00;7.25;;;;;;;18.82;53.70;99081.00;4993961;28;20053;-74
2023/07/29 00:54:13;;;;;;;9.65;6.97;;;;;;;18.76;54.17;99083.47;5002039;28;20408;-74
2023/07/29 00:56:38;;;;;;;8.68;7.00;;;;;;;18.72;54.59;99085.44;5013159;28;20406;-74
2023/07/29 00:59:04;;;;;;;7.80;6.00;;;;;;;18.79;54.36;99084.66;5004281;28;20022;-74
2023/07/29 01:01:30;;;;;;;9.30;6.18;;;;;;;18.69;54.39;99080.59;5012931;28;20113;-74
2023/07/29 01:03:57;;;;;;;11.90;6.22;;;;;;;18.61;54.90;99078.94;5013193;28;20112;-74
2023/07/29 01:06:22;;;;;;;11.93;6.75;;;;;;;18.73;54.63;99080.59;5013248;28;20025;-74
2023/07/29 01:09:04;;;;;;;8.35;6.47;;;;;;;18.34;56.17;99073.59;5012555;28;20109;-74
2023/07/29 01:12:11;;;;;;;7.88;6.82;;;;;;;18.47;55.79;99071.22;5009819;28;20119;-74
2023/07/29 01:15:09;;;;;;;14.75;6.65;;;;;;;18.23;56.49;99088.50;4993251;28;20548;-74
2023/07/29 01:17:46;;;;;;;10.57;6.38;;;;;;;18.14;56.92;99084.41;4993422;28;20026;-74
2023/07/29 01:20:15;;;;;;;13.18;6.82;;;;;;;17.89;57.59;99088.66;4993247;28;20026;-74
2023/07/29 01:22:41;;;;;;;14.63;7.63;;;;;;;17.79;57.99;99078.91;4993416;28;20409;-74
2023/07/29 01:25:07;;;;;;;9.45;7.28;;;;;;;17.83;58.39;99093.88;4997995;28;20092;-74
2023/07/29 01:27:33;;;;;;;10.40;6.95;;;;;;;17.72;58.46;99090.16;5009995;28;20021;-74
2023/07/29 01:30:00;;;;;;;12.30;7.30;;;;;;;17.77;58.66;99098.31;4992089;28;20417;-74
2023/07/29 01:32:35;;;;;;;11.43;6.60;;;;;;;17.61;59.45;99100.59;4993205;28;20135;-74
2023/07/29 01:35:15;;;;;;;7.88;7.18;;;;;;;17.83;58.94;99096.72;4992914;28;20529;-74
2023/07/29 01:37:42;;;;;;;9.98;6.00;;;;;;;17.78;58.72;99094.28;4993048;28;20038;-74
2023/07/29 01:40:09;;;;;;;10.00;6.60;;;;;;;17.76;58.96;99090.19;4999705;28;20060;-74
2023/07/29 01:42:35;;;;;;;9.27;6.65;;;;;;;17.80;59.16;99097.50;5011000;28;20030;-74
2023/07/29 01:45:00;;;;;;;12.55;7.10;;;;;;;17.75;59.10;99097.06;5012458;28;20081;-74
2023/07/29 01:47:26;;;;;;;9.32;7.75;;;;;;;17.58;59.72;99098.56;5011221;28;20033;-74
2023/07/29 01:49:51;;;;;;;11.50;7.40;;;;;;;17.45;60.24;99103.72;5010176;28;20029;-74
2023/07/29 01:52:17;;;;;;;11.15;7.30;;;;;;;17.39;60.58;99106.09;5012493;28;20477;-74
2023/07/29 01:54:42;;;;;;;8.95;6.95;;;;;;;17.15;61.31;99093.34;5012342;28;20033;-74
2023/07/29 01:57:08;;;;;;;9.95;7.63;;;;;;;17.45;60.62;99098.84;5002367;28;20026;-74
2023/07/29 01:59:33;;;;;;;9.50;7.25;;;;;;;17.46;60.24;99099.69;5009158;28;20033;-74
2023/07/29 02:01:59;;;;;;;8.07;6.30;;;;;;;17.45;60.24;99098.84;5000100;28;20041;-74
2023/07/29 02:04:24;;;;;;;11.10;7.10;;;;;;;17.48;60.05;99109.38;4992527;28;20102;-74
2023/07/29 02:06:49;;;;;;;8.77;6.68;;;;;;;17.44;60.00;99124.72;4991155;28;20029;-74
2023/07/29 02:09:15;;;;;;;12.48;8.23;;;;;;;17.38;60.12;99116.56;4992334;28;20030;-74
2023/07/29 02:11:40;;;;;;;9.63;7.32;;;;;;;17.34;60.48;99118.56;4996674;28;20029;-74
2023/07/29 02:14:06;;;;;;;11.00;8.07;;;;;;;17.33;60.39;99108.47;5011979;28;20106;-74
2023/07/29 02:16:32;;;;;;;14.25;6.18;;;;;;;17.52;60.39;99113.06;5010727;28;20072;-74
2023/07/29 02:18:58;;;;;;;15.15;6.47;;;;;;;17.57;60.13;99111.91;5011754;28;20037;-74
2023/07/29 02:21:23;;;;;;;9.32;6.63;;;;;;;17.60;60.01;99115.94;5011951;28;20038;-74
2023/07/29 02:23:49;;;;;;;9.57;6.20;;;;;;;17.51;59.99;99110.63;5007679;28;20037;-74
2023/07/29 02:26:16;;;;;;;11.98;6.32;;;;;;;17.40;60.47;99113.38;4996526;28;20029;-74
2023/07/29 02:28:41;;;;;;;10.75;6.20;;;;;;;17.33;60.72;99118.94;5011854;28;20030;-74
2023/07/29 02:31:15;;;;;;;11.15;6.80;;;;;;;17.36;61.08;99116.16;4996888;28;20080;-74
2023/07/29 02:33:41;;;;;;;9.50;6.70;;;;;;;17.37;60.83;99126.25;5008306;28;20103;-74
2023/07/29 02:36:06;;;;;;;13.85;6.43;;;;;;;17.47;60.43;99116.22;5003779;28;20037;-74
2023/07/29 02:38:32;;;;;;;8.35;6.65;;;;;;;17.73;59.43;99117.25;5001847;28;20030;-74
2023/07/29 02:40:57;;;;;;;13.80;7.38;;;;;;;17.86;58.82;99114.94;5011204;28;20041;-74
2023/07/29 02:43:22;;;;;;;8.40;6.80;;;;;;;17.59;59.28;99114.31;5011605;28;20485;-74
2023/07/29 02:45:48;;;;;;;12.48;7.28;;;;;;;17.72;59.00;99121.28;5011527;28;20514;-74
2023/07/29 02:48:13;;;;;;;10.10;7.35;;;;;;;17.64;59.15;99128.09;5011142;28;20025;-74
2023/07/29 02:50:39;;;;;;;11.13;6.95;;;;;;;18.08;58.03;99138.53;5011035;28;20029;-75
2023/07/29 02:53:05;;;;;;;9.05;6.75;;;;;;;18.29;57.41;99133.41;4996818;28;20112;-74
2023/07/29 02:55:30;;;;;;;13.68;7.63;;;;;;;18.48;56.57;99129.47;4995126;28;20029;-74
2023/07/29 02:57:56;;;;;;;13.10;6.95;;;;;;;18.19;56.89;99132.97;5011419;28;20095;-74
2023/07/29 03:00:21;;;;;;;12.13;6.60;;;;;;;18.09;56.97;99142.19;5003220;28;20034;-74
2023/07/29 03:02:46;;;;;;;7.15;6.15;;;;;;;17.70;58.10;99132.19;4998238;28;20065;-74
2023/07/29 03:05:12;;;;;;;19.02;7.25;;;;;;;17.56;58.69;99132.06;5002663;28;20030;-74
2023/07/29 03:07:38;;;;;;;22.48;7.15;;;;;;;17.59;58.72;99149.06;4998649;28;20038;-74
2023/07/29 03:10:03;;;;;;;35.42;6.85;;;;;;;17.77;58.22;99146.38;5000282;28;20089;-74
2023/07/29 03:12:29;;;;;;;9.75;6.30;;;;;;;17.44;59.13;99148.13;5017741;28;20025;-74
2023/07/29 03:14:56;;;;;;;10.90;6.65;;;;;;;17.50;59.08;99142.94;5017703;28;20029;-74
2023/07/29 03:17:21;;;;;;;9.77;6.85;;;;;;;17.30;59.53;99142.34;5016427;28;20030;-74
2023/07/29 03:19:46;;;;;;;14.10;7.05;;;;;;;17.03;60.56;99145.31;5012427;28;20049;-74
2023/07/29 03:22:12;;;;;;;10.55;6.50;;;;;;;17.05;60.53;99140.88;5015304;28;20033;-74
2023/07/29 03:24:37;;;;;;;7.78;6.65;;;;;;;16.91;61.26;99132.22;5016102;28;20049;-74
2023/07/29 03:27:03;;;;;;;12.57;8.60;;;;;;;17.11;60.90;99142.16;5017640;28;20017;-74
2023/07/29 03:29:28;;;;;;;23.33;7.35;;;;;;;17.17;60.92;99145.44;4999381;28;20049;-74
2023/07/29 03:31:54;;;;;;;15.85;6.55;;;;;;;17.17;61.21;99148.28;5017504;28;20026;-74
2023/07/29 03:34:20;;;;;;;8.32;6.40;;;;;;;17.20;61.08;99149.53;5017239;28;20049;-74
2023/07/29 03:36:47;;;;;;;8.18;6.22;;;;;;;17.09;61.62;99149.38;5016580;28;20481;-74
2023/07/29 03:39:13;;;;;;;14.48;7.45;;;;;;;17.20;61.35;99144.66;5017029;28;20033;-74
2023/07/29 03:41:42;;;;;;;11.07;6.95;;;;;;;17.55;60.54;99142.56;5011035;28;20029;-74
2023/07/29 03:44:07;;;;;;;23.05;7.28;;;;;;;17.66;60.28;99148.31;5006082;28;20187;-74
2023/07/29 03:46:33;;;;;;;12.88;6.80;;;;;;;17.71;59.91;99145.13;5017567;28;20113;-74
2023/07/29 03:48:58;;;;;;;10.80;6.63;;;;;;;17.58;60.60;99147.44;5000119;28;20033;-74
2023/07/29 03:51:24;;;;;;;12.60;6.45;;;;;;;17.50;61.79;99157.88;4996546;28;20092;-74
2023/07/29 03:53:50;;;;;;;11.55;7.63;;;;;;;17.61;61.43;99168.44;5015486;28;20084;-75
2023/07/29 03:56:15;;;;;;;10.57;7.88;;;;;;;17.43;62.18;99162.63;5017104;28;20033;-74
2023/07/29 03:58:41;;;;;;;26.60;14.45;;;;;;;17.26;62.86;99165.72;5016046;28;20037;-74
2023/07/29 04:01:06;;;;;;;23.75;13.27;;;;;;;17.19;62.83;99176.94;5016588;28;20421;-74
2023/07/29 04:03:33;;;;;;;16.10;9.40;;;;;;;17.13;63.61;99178.50;5000632;28;20129;-74
2023/07/29 04:05:59;;;;;;;18.60;9.32;;;;;;;17.21;63.64;99165.28;4997668;28;20082;-74
2023/07/29 04:08:24;;;;;;;23.88;11.48;;;;;;;17.60;62.40;99176.13;5009778;28;20497;-72
2023/07/29 04:10:50;;;;;;;26.63;12.98;;;;;;;18.00;60.98;99175.63;5017005;28;20516;-72
2023/07/29 04:13:15;;;;;;;19.33;9.82;;;;;;;18.27;60.17;99170.59;5009846;28;20030;-72
2023/07/29 04:15:41;;;;;;;18.95;9.50;;;;;;;17.89;60.88;99165.06;4994588;28;20116;-74
2023/07/29 04:18:06;;;;;;;25.67;10.85;;;;;;;17.73;61.81;99176.63;4994677;28;20033;-74
2023/07/29 04:20:33;;;;;;;14.35;8.57;;;;;;;17.72;61.82;99172.19;5013690;28;20028;-74
2023/07/29 04:22:59;;;;;;;15.77;6.97;;;;;;;17.98;61.40;99186.53;5014144;28;20029;-75
2023/07/29 04:25:24;;;;;;;11.75;7.28;;;;;;;18.20;60.75;99184.69;5011930;28;20519;-77
2023/07/29 04:27:50;;;;;;;11.35;5.93;;;;;;;18.19;60.30;99191.56;5011575;28;20248;-73
2023/07/29 04:30:15;;;;;;;8.98;6.00;;;;;;;18.37;59.78;99197.34;5006272;28;20104;-74
2023/07/29 04:32:42;;;;;;;10.45;5.55;;;;;;;18.70;58.89;99201.19;4995022;28;20026;-79
2023/07/29 04:35:08;;;;;;;7.00;4.85;;;;;;;19.19;58.24;99190.47;5012119;28;20512;-76
2023/07/29 04:37:33;;;;;;;7.82;4.82;;;;;;;19.38;57.33;99191.31;5013920;28;20030;-75
2023/07/29 04:39:59;;;;;;;6.90;4.82;;;;;;;19.61;56.73;99181.63;5012461;28;20547;-75
2023/07/29 04:42:24;;;;;;;8.15;4.85;;;;;;;19.76;56.06;99183.25;4997186;28;20030;-75
2023/07/29 04:44:50;;;;;;;4.75;3.95;;;;;;;19.80;56.01;99186.09;4994107;28;20409;-74
2023/07/29 04:47:15;;;;;;;18.50;5.10;;;;;;;19.87;55.63;99193.78;4995702;28;20034;-75
2023/07/29 04:49:41;;;;;;;7.82;4.57;;;;;;;19.66;56.19;99186.09;5013584;28;20057;-74
2023/07/29 04:52:06;;;;;;;13.25;5.72;;;;;;;19.69;55.74;99180.41;5012188;28;20033;-77
2023/07/29 04:54:32;;;;;;;5.13;4.63;;;;;;;19.76;55.83;99183.25;5009790;28;20064;-76
2023/07/29 04:56:57;;;;;;;6.68;4.47;;;;;;;19.85;56.10;99194.22;5013313;28;20025;-73
2023/07/29 04:59:23;;;;;;;9.63;4.70;;;;;;;20.00;55.01;99194.22;5010136;28;20456;-75
2023/07/29 05:01:49;;;;;;;9.65;4.32;;;;;;;19.96;53.24;99194.22;5012759;28;20421;-74
2023/07/29 05:04:15;;;;;;;6.15;4.40;;;;;;;19.87;53.72;99188.09;5003587;28;20037;-74
2023/07/29 05:06:40;;;;;;;5.20;4.07;;;;;;;20.07;53.49;99197.03;5013140;28;20026;-74
2023/07/29 05:09:17;;;;;;;12.63;4.35;;;;;;;20.04;53.34;99193.00;5002940;28;20025;-74
2023/07/29 05:11:45;;;;;;;13.07;4.07;;;;;;;20.12;52.98;99190.97;5007610;28;20489;-74
2023/07/29 05:14:12;;;;;;;5.72;4.03;;;;;;;20.40;51.93;99192.13;5013141;28;20037;-74
2023/07/29 05:16:37;;;;;;;6.15;4.05;;;;;;;20.58;50.87;99194.94;5011843;28;20032;-74
2023/07/29 05:19:03;;;;;;;6.45;4.07;;;;;;;20.79;50.18;99184.72;5013094;28;20022;-74
2023/07/29 05:21:29;;;;;;;6.70;4.20;;;;;;;20.96;49.36;99197.28;5012899;28;20029;-74
2023/07/29 05:23:54;;;;;;;8.27;5.30;;;;;;;20.86;49.43;99195.28;4996420;28;20037;-74
2023/07/29 05:26:19;;;;;;;6.40;4.32;;;;;;;20.84;49.40;99203.41;5010830;28;20019;-74
2023/07/29 05:28:45;;;;;;;15.68;4.85;;;;;;;21.12;48.65;99199.63;5001570;28;20033;-74
2023/07/29 05:31:11;;;;;;;5.63;4.60;;;;;;;21.32;47.18;99199.94;4999832;28;20038;-74
2023/07/29 05:33:36;;;;;;;9.80;4.25;;;;;;;21.37;47.91;99207.22;5008192;28;20018;-74
2023/07/29 05:36:02;;;;;;;9.38;5.15;;;;;;;21.38;46.04;99200.28;5006914;28;20076;-76
2023/07/29 05:38:27;;;;;;;20.25;5.13;;;;;;;21.68;45.82;99198.09;5003195;28;20128;-75
2023/07/29 05:40:53;;;;;;;7.63;4.80;;;;;;;21.72;45.69;99205.38;4993303;28;20089;-75
2023/07/29 05:43:18;;;;;;;14.38;4.22;;;;;;;21.67;44.77;99207.88;5011703;28;20456;-76
2023/07/29 05:45:44;;;;;;;7.97;4.25;;;;;;;21.80;45.22;99211.84;5013262;28;20022;-76
2023/07/29 05:48:09;;;;;;;4.97;4.20;;;;;;;22.05;45.12;99199.41;5015512;28;20021;-76
2023/07/29 05:50:34;;;;;;;6.72;4.50;;;;;;;22.06;44.49;99220.97;5021482;28;20028;-76
2023/07/29 05:53:00;;;;;;;10.85;4.25;;;;;;;22.21;45.20;99212.28;5014661;28;20044;-75
2023/07/29 05:55:25;;;;;;;12.75;4.45;;;;;;;22.25;45.06;99211.03;5014958;28;20021;-75
2023/07/29 05:57:51;;;;;;;8.68;4.70;;;;;;;22.58;44.14;99208.69;4996621;28;20118;-76
2023/07/29 06:00:16;;;;;;;5.43;4.32;;;;;;;22.47;43.60;99212.84;5013049;28;20026;-76
2023/07/29 06:02:42;;;;;;;6.10;4.63;;;;;;;22.68;43.85;99212.66;5011412;28;20481;-76
2023/07/29 06:05:08;;;;;;;7.18;4.28;;;;;;;22.55;42.24;99212.38;4999794;28;20022;-76
2023/07/29 06:07:34;;;;;;;16.33;3.70;;;;;;;22.53;42.42;99217.69;5005734;28;20091;-75
2023/07/29 06:10:00;;;;;;;7.78;3.22;;;;;;;22.53;40.95;99217.69;4997746;28;20323;-72
2023/07/29 06:12:26;;;;;;;17.65;3.75;;;;;;;22.55;41.38;99208.72;5006300;28;20037;-74
2023/07/29 06:14:52;;;;;;;4.35;3.33;;;;;;;22.34;42.16;99206.88;5005478;28;20026;-72
2023/07/29 06:17:17;;;;;;;6.82;3.33;;;;;;;22.41;42.66;99206.81;5010414;28;20040;-72
2023/07/29 06:19:42;;;;;;;7.45;3.63;;;;;;;22.79;42.35;99201.13;5009241;28;20032;-74
2023/07/29 06:22:09;;;;;;;10.25;3.38;;;;;;;22.95;40.97;99191.97;5010040;28;20416;-74
2023/07/29 06:24:35;;;;;;;7.10;3.38;;;;;;;23.25;40.92;99203.78;5010873;28;20592;-74
2023/07/29 06:27:00;;;;;;;6.03;3.58;;;;;;;23.30;40.65;99196.84;5006927;28;20125;-74
2023/07/29 06:29:26;;;;;;;3.90;2.80;;;;;;;23.50;40.21;99191.25;4991606;28;20026;-74
2023/07/29 06:31:51;;;;;;;6.53;3.63;;;;;;;23.66;39.65;99197.13;5006444;28;20026;-74
2023/07/29 06:34:17;;;;;;;4.90;3.90;;;;;;;23.37;39.84;99205.31;5008293;28;20056;-74
2023/07/29 06:36:44;;;;;;;6.78;3.40;;;;;;;23.31;40.51;99198.44;5009460;28;20034;-74
2023/07/29 06:39:10;;;;;;;4.50;3.30;;;;;;;23.45;40.23;99203.94;5009012;28;20033;-73
2023/07/29 06:41:35;;;;;;;8.05;3.72;;;;;;;23.34;40.67;99192.69;5009462;28;20421;-74
2023/07/29 06:44:01;;;;;;;10.90;5.18;;;;;;;23.87;40.28;99189.44;5009321;28;20109;-74
2023/07/29 06:46:26;;;;;;;5.80;3.40;;;;;;;24.34;41.49;99202.13;5010535;28;20033;-74
2023/07/29 06:48:52;;;;;;;9.20;3.53;;;;;;;24.73;39.06;99196.91;5011513;28;20465;-74
2023/07/29 06:51:17;;;;;;;10.70;4.25;;;;;;;24.94;39.49;99187.09;5008941;28;20053;-74
2023/07/29 06:53:42;;;;;;;3.90;3.47;;;;;;;25.23;39.91;99204.44;5010487;28;20104;-74
2023/07/29 06:56:08;;;;;;;9.25;3.65;;;;;;;25.49;38.02;99203.94;5010234;28;20026;-74
2023/07/29 06:58:34;;;;;;;3.88;3.47;;;;;;;25.24;36.17;99188.09;5011273;28;20037;-74
2023/07/29 07:01:00;;;;;;;4.47;3.70;;;;;;;25.59;38.41;99184.88;5011445;28;20406;-73
2023/07/29 07:03:25;;;;;;;7.05;2.95;;;;;;;25.76;37.62;99191.44;5011307;28;20036;-72
2023/07/29 07:05:51;;;;;;;3.72;3.38;;;;;;;25.27;36.65;99186.38;5011195;28;20061;-72
2023/07/29 07:08:16;;;;;;;3.58;3.22;;;;;;;25.28;36.41;99176.56;5010290;28;20099;-72
2023/07/29 07:10:42;;;;;;;5.18;3.40;;;;;;;25.79;38.19;99184.78;5010214;28;20026;-72
2023/07/29 07:13:07;;;;;;;4.38;3.20;;;;;;;25.99;37.80;99172.44;5010955;28;20040;-72
2023/07/29 07:15:33;;;;;;;5.78;3.28;;;;;;;26.08;38.22;99178.34;5011116;28;20037;-72
2023/07/29 07:17:58;;;;;;;11.95;3.92;;;;;;;26.34;37.14;99175.66;5009932;28;20416;-72
2023/07/29 07:20:24;;;;;;;4.13;3.13;;;;;;;26.56;35.42;99180.81;5011185;28;20408;-74
2023/07/29 07:22:49;;;;;;;6.70;2.90;;;;;;;26.58;35.26;99169.69;5011334;28;20038;-74
2023/07/29 07:25:14;;;;;;;4.40;3.15;;;;;;;26.73;35.12;99178.69;5010166;28;20025;-74
2023/07/29 07:27:40;;;;;;;4.05;3.45;;;;;;;26.93;34.97;99178.53;5011250;28;20037;-74
2023/07/29 07:30:06;;;;;;;4.97;3.33;;;;;;;27.03;33.69;99176.59;5010870;28;20453;-74
2023/07/29 07:32:31;;;;;;;3.70;2.92;;;;;;;26.89;33.79;99172.09;5011221;28;20026;-74
2023/07/29 07:34:57;;;;;;;4.03;3.47;;;;;;;27.28;33.41;99170.09;5010919;28;20061;-74
2023/07/29 07:37:22;;;;;;;5.30;2.78;;;;;;;27.54;34.62;99175.88;5009240;28;20030;-74
2023/07/29 07:39:49;;;;;;;4.40;3.20;;;;;;;27.75;34.35;99177.25;5007616;28;20049;-74
2023/07/29 07:42:15;;;;;;;15.50;4.03;;;;;;;27.83;34.50;99174.94;5011070;28;20025;-74
2023/07/29 07:44:40;;;;;;;7.97;3.95;;;;;;;27.91;34.26;99168.94;5011010;28;20037;-74
2023/07/29 07:47:06;;;;;;;9.68;3.35;;;;;;;27.86;34.54;99168.25;5011175;28;20033;-74
2023/07/29 07:49:31;;;;;;;3.65;2.85;;;;;;;28.06;34.29;99155.69;5014256;28;20105;-74
2023/07/29 07:51:57;;;;;;;6.32;3.25;;;;;;;28.01;34.30;99159.94;5014792;28;20034;-74
2023/07/29 07:54:22;;;;;;;5.93;2.85;;;;;;;28.37;34.15;99157.94;5014409;28;20036;-74
2023/07/29 07:56:47;;;;;;;6.10;2.92;;;;;;;28.35;34.70;99148.16;5013472;28;20421;-74
2023/07/29 07:59:13;;;;;;;4.45;3.08;;;;;;;28.35;33.68;99154.69;5014356;28;20026;-74
2023/07/29 08:01:39;;;;;;;4.43;3.25;;;;;;;27.96;32.90;99151.13;5014610;28;20032;-74
2023/07/29 08:04:05;;;;;;;3.78;2.80;;;;;;;28.06;34.57;99152.81;5013154;28;20485;-74
2023/07/29 08:06:31;;;;;;;5.70;3.38;;;;;;;28.40;34.07;99144.69;5014500;28;20026;-74
2023/07/29 08:08:57;;;;;;;6.63;2.80;;;;;;;28.64;33.91;99136.41;5014112;28;20026;-74
2023/07/29 08:11:22;;;;;;;4.05;2.97;;;;;;;28.88;33.08;99135.97;5014414;28;20076;-74
2023/07/29 08:13:48;;;;;;;4.38;2.95;;;;;;;27.95;31.68;99127.34;5013348;28;20503;-74
2023/07/29 08:16:14;;;;;;;3.40;2.83;;;;;;;28.26;31.83;99126.69;5014214;28;20038;-74
2023/07/29 08:18:39;;;;;;;7.18;3.42;;;;;;;28.88;32.68;99123.63;5013983;28;20083;-74
2023/07/29 08:21:05;;;;;;;3.65;3.28;;;;;;;28.90;32.30;99119.00;5014200;28;20047;-74
2023/07/29 08:23:32;;;;;;;7.13;3.30;;;;;;;28.98;32.64;99120.34;5014150;28;20032;-74
2023/07/29 08:26:02;;;;;;;3.70;2.97;;;;;;;28.99;31.88;99127.72;5013741;28;20100;-74
2023/07/29 08:28:29;;;;;;;5.05;3.20;;;;;;;28.98;31.29;99114.59;5012801;28;20036;-74
2023/07/29 08:30:55;;;;;;;4.85;3.03;;;;;;;28.27;32.27;99110.25;5012948;28;20089;-74
2023/07/29 08:33:20;;;;;;;7.30;2.60;;;;;;;28.85;33.79;99111.00;5013917;28;20029;-74
2023/07/29 08:35:45;;;;;;;15.70;4.10;;;;;;;28.98;31.39;99113.78;5013807;28;20061;-74
2023/07/29 08:38:11;;;;;;;5.75;2.70;;;;;;;29.56;30.69;99115.19;5013849;28;20041;-74
2023/07/29 08:40:41;;;;;;;4.40;2.90;;;;;;;28.71;31.43;99110.22;5013597;28;20095;-74
2023/07/29 08:43:08;;;;;;;3.95;2.72;;;;;;;29.08;33.22;99103.09;5012540;28;20129;-74
2023/07/29 08:45:36;;;;;;;6.15;3.30;;;;;;;29.50;30.79;99111.31;5012733;28;20021;-74
2023/07/29 08:48:06;;;;;;;7.80;3.72;;;;;;;29.21;30.38;99106.72;5012807;28;20038;-74
2023/07/29 08:50:32;;;;;;;;;;;;;;;29.73;31.32;99103.38;5012849;28;20394;-74
2023/07/29 08:53:00;;;;;;;6.57;3.97;;;;;;;29.42;30.28;99105.03;5012510;28;19909;-74
2023/07/29 08:55:26;;;;;;;13.98;4.30;;;;;;;29.12;30.01;99104.56;5012540;28;20034;-74
2023/07/29 08:57:52;;;;;;;7.68;3.33;;;;;;;29.38;29.66;99106.44;5013324;28;20040;-75
2023/07/29 09:00:19;;;;;;;3.22;2.88;;;;;;;29.78;29.13;99111.38;5012342;28;20116;-74
2023/07/29 09:02:44;;;;;;;3.35;3.05;;;;;;;30.29;29.13;99102.66;5013499;28;20192;-74
2023/07/29 09:05:10;;;;;;;17.73;3.58;;;;;;;29.93;29.12;99093.50;5013323;28;20030;-75
2023/07/29 09:07:36;;;;;;;5.03;3.80;;;;;;;30.23;29.79;99088.06;5012217;28;20481;-74
2023/07/29 09:10:02;;;;;;;3.50;2.95;;;;;;;30.19;27.80;99079.59;5013221;28;20390;-75
2023/07/29 09:12:28;;;;;;;9.02;3.00;;;;;;;30.76;29.76;99078.25;5012856;28;20033;-75
2023/07/29 09:14:54;;;;;;;3.67;3.00;;;;;;;30.80;27.74;99078.09;5013186;28;20033;-75
2023/07/29 09:17:21;;;;;;;3.15;2.85;;;;;;;30.94;26.73;99074.53;5013189;28;20112;-75
2023/07/29 09:19:48;;;;;;;3.67;3.25;;;;;;;31.10;28.06;99066.75;5012975;28;20037;-75
2023/07/29 09:22:19;;;;;;;4.30;3.15;;;;;;;31.28;29.70;99059.34;5010850;28;20037;-75
2023/07/29 09:24:46;;;;;;;3.30;3.00;;;;;;;31.19;29.28;99055.16;5011678;28;20475;-75
2023/07/29 09:27:27;;;;;;;5.10;3.13;;;;;;;31.14;29.16;99058.75;5012634;28;20104;-75
2023/07/29 09:29:53;;;;;;;4.88;3.25;;;;;;;31.43;28.46;99051.56;5012530;28;20026;-75
2023/07/29 09:32:24;;;;;;;3.05;2.60;;;;;;;31.91;27.16;99056.53;5012730;28;20397;-75
2023/07/29 09:34:49;;;;;;;3.17;2.78;;;;;;;32.19;28.53;99061.31;5011612;28;20049;-75
2023/07/29 09:37:21;;;;;;;4.93;2.95;;;;;;;32.14;26.31;99062.00;5011752;28;20048;-75
2023/07/29 09:39:49;;;;;;;4.10;3.08;;;;;;;32.28;24.75;99055.44;5011309;28;20037;-75
2023/07/29 09:42:22;;;;;;;2.97;2.78;;;;;;;31.95;25.57;99044.00;5011284;28;20038;-75
2023/07/29 09:44:50;;;;;;;6.20;2.92;;;;;;;31.95;26.34;99044.78;5012295;28;20410;-75
2023/07/29 09:47:22;;;;;;;4.85;2.95;;;;;;;32.27;25.76;99042.28;5012555;28;20104;-76
2023/07/29 09:49:48;;;;;;;3.20;2.90;;;;;;;32.63;25.74;99040.34;5012572;28;20102;-75
2023/07/29 09:52:22;;;;;;;3.10;2.78;;;;;;;32.74;25.35;99041.81;5011875;28;20066;-75
2023/07/29 09:54:48;;;;;;;3.47;3.10;;;;;;;31.56;25.27;99038.94;5009746;28;20033;-75
2023/07/29 09:57:15;;;;;;;4.70;3.00;;;;;;;32.17;25.24;99032.91;5012278;28;20113;-75
2023/07/29 09:59:41;;;;;;;5.60;2.70;;;;;;;32.45;25.81;99028.94;5012333;28;20034;-75
2023/07/29 10:02:16;;;;;;;2.85;2.42;;;;;;;32.49;23.69;99021.66;5012325;28;20034;-75
2023/07/29 10:04:42;;;;;;;13.32;2.53;;;;;;;32.81;25.19;99026.94;5012372;28;20041;-75
2023/07/29 10:07:10;;;;;;;4.28;2.88;;;;;;;32.65;24.38;99030.34;5010612;28;20029;-75
2023/07/29 10:09:37;;;;;;;3.40;3.00;;;;;;;32.77;24.68;99037.94;5010976;28;20408;-75
2023/07/29 10:12:06;;;;;;;3.38;2.33;;;;;;;33.05;23.75;99031.81;5010341;28;20061;-76
2023/07/29 10:14:32;;;;;;;7.15;3.22;;;;;;;33.12;24.27;99025.63;5012211;28;20417;-76
2023/07/29 10:16:58;;;;;;;4.32;2.63;;;;;;;33.48;24.57;99025.63;5010750;28;20026;-76
2023/07/29 10:19:25;;;;;;;4.63;2.70;;;;;;;32.57;23.54;99032.84;5011977;28;20030;-76
2023/07/29 10:21:51;;;;;;;3.00;2.20;;;;;;;32.71;23.42;99019.69;5011667;28;20441;-76
2023/07/29 10:24:23;;;;;;;10.48;2.45;;;;;;;32.52;23.96;99019.88;5012278;28;20032;-76
2023/07/29 10:26:50;;;;;;;10.10;3.05;;;;;;;32.70;23.73;99018.06;5010754;28;20030;-76
2023/07/29 10:29:21;;;;;;;5.32;2.33;;;;;;;32.26;24.22;99014.66;5011958;28;20021;-76
2023/07/29 10:31:47;;;;;;;3.30;2.65;;;;;;;32.98;24.31;99014.88;5011771;28;20117;-76
2023/07/29 10:34:14;;;;;;;4.32;3.00;;;;;;;33.05;23.35;99012.34;5011665;28;20077;-76
2023/07/29 10:36:41;;;;;;;2.60;2.35;;;;;;;32.91;23.87;99005.28;5011817;28;20069;-76
2023/07/29 10:39:07;;;;;;;2.60;2.25;;;;;;;33.42;24.53;99002.34;5010444;28;20061;-76
2023/07/29 10:42:01;;;;;;;2.97;2.15;;;;;;;33.45;23.64;98998.47;5012248;28;20481;-75
2023/07/29 10:44:39;;;;;;;3.65;1.73;;;;;;;33.77;22.87;98994.91;5010695;28;20510;-76
2023/07/29 10:47:12;;;;;;;3.72;2.45;;;;;;;33.87;21.36;98989.75;5010285;28;20034;-76
2023/07/29 10:49:40;;;;;;;8.07;3.20;;;;;;;33.89;22.07;98984.25;5010331;28;20091;-76
2023/07/29 10:52:06;;;;;;;3.45;2.47;;;;;;;33.18;22.89;98988.06;5011260;28;20117;-76
2023/07/29 10:54:42;;;;;;;4.78;2.05;;;;;;;34.04;22.06;98980.50;5011587;28;20029;-76
2023/07/29 10:57:12;;;;;;;3.60;2.55;;;;;;;33.47;22.63;98978.47;5011455;28;20030;-76
2023/07/29 10:59:37;;;;;;;2.13;1.92;;;;;;;33.23;22.73;98977.84;5009935;28;20033;-76
2023/07/29 11:02:15;;;;;;;4.00;2.20;;;;;;;33.38;24.28;98977.81;5011422;28;20033;-76
2023/07/29 11:04:49;;;;;;;2.20;2.00;;;;;;;34.01;23.40;98971.47;5010165;28;20030;-76
2023/07/29 11:07:15;;;;;;;2.80;2.10;;;;;;;33.84;22.40;98967.59;5011363;28;20025;-76
2023/07/29 11:09:49;;;;;;;6.72;3.08;;;;;;;34.40;22.88;98972.41;5010101;28;20111;-76
2023/07/29 11:12:45;;;;;;;3.80;1.70;;;;;;;34.66;22.38;98965.81;5011377;28;20050;-76
2023/07/29 11:15:11;;;;;;;2.13;1.48;;;;;;;34.72;22.11;98964.53;5010148;28;20029;-76
2023/07/29 11:17:56;;;;;;;2.55;2.08;;;;;;;33.84;21.54;98967.59;5009977;28;20581;-76
2023/07/29 11:20:24;;;;;;;3.03;1.65;;;;;;;34.07;23.43;98954.16;5009360;28;20096;-76
2023/07/29 11:22:51;;;;;;;2.13;1.50;;;;;;;34.34;22.30;98952.06;5011963;28;20029;-76
2023/07/29 11:25:18;;;;;;;4.75;1.98;;;;;;;34.38;22.17;98946.00;5015285;28;20108;-76
2023/07/29 11:27:44;;;;;;;9.80;1.67;;;;;;;34.93;22.06;98952.00;5015208;28;20026;-76
2023/07/29 11:30:12;;;;;;;3.58;1.70;;;;;;;34.99;22.22;98947.81;5013900;28;20037;-76